^^
Datos históricos de la estación: Murcia-Puente Tocinos
Diario Informe para Mayo 15, 2019 Unidades:  Métrico    Inglés   Ambas
Diario Semanal Mensual Anual Configurable
  Máximo: Mínimo: Media:
Temperatura: 32.4 °C 14.8 °C 21.4 °C
Punto de rocio: 15.8 °C 8.8 °C 10.9 °C
Humedad: 81% 25% 54%
Velocidad viento: 27.4km/h 0.0km/h 9.3km/h
Racha viento: 48.1km/h - -
Viento- - SE
Presión: 1013.9 hPa 1006.1 hPa -
Precipitación: 0.0 mm    
Historical Graphs
 
 
Tabla de datos para Mayo 15, 2019
Hora Temperatura Punto de rocio Presión Viento Velocidad viento Racha viento Humedad Intensidad lluvia(por hora) Nubes
00:00 18.4 °C 10.0 °C 1013.8 hPa ESE 3.2 km/h 8.0 km/h 58% 0.0 mm CLR
00:05 18.3 °C 10.2 °C 1013.8 hPa SSE 3.2 km/h 3.7 km/h 59% 0.0 mm CLR
00:10 18.3 °C 10.2 °C 1013.8 hPa SSE 2.9 km/h   59% 0.0 mm CLR
00:15 18.2 °C 10.3 °C 1013.8 hPa SSE 2.9 km/h 1.9 km/h 60% 0.0 mm CLR
00:19 18.1 °C 10.2 °C 1013.9 hPa Calm   2.3 km/h 60% 0.0 mm CLR
00:25 18.1 °C 10.2 °C 1013.9 hPa Calm   1.6 km/h 60% 0.0 mm CLR
00:29 18.1 °C 10.2 °C 1013.9 hPa Calm     60% 0.0 mm CLR
00:35 18.1 °C 9.9 °C 1013.8 hPa Calm   5.6 km/h 59% 0.0 mm CLR
00:39 17.9 °C 10.0 °C 1013.8 hPa SSE 2.3 km/h 3.9 km/h 60% 0.0 mm CLR
00:45 17.8 °C 10.0 °C 1013.8 hPa South 1.6 km/h 4.8 km/h 60% 0.0 mm CLR
00:49 17.7 °C 10.1 °C 1013.8 hPa ESE 2.3 km/h 7.4 km/h 61% 0.0 mm CLR
00:55 17.7 °C 10.1 °C 1013.8 hPa SSE 1.6 km/h 6.4 km/h 61% 0.0 mm CLR
01:00 17.7 °C 10.1 °C 1013.8 hPa SE 3.2 km/h 6.4 km/h 61% 0.0 mm CLR
01:05 17.7 °C 9.8 °C 1013.7 hPa ESE 3.2 km/h 7.4 km/h 60% 0.0 mm CLR
01:10 17.7 °C 9.1 °C 1013.7 hPa SE 3.2 km/h 8.0 km/h 57% 0.0 mm CLR
01:15 17.6 °C 9.0 °C 1013.7 hPa SSE 3.2 km/h 8.0 km/h 57% 0.0 mm CLR
01:20 17.5 °C 9.2 °C 1013.6 hPa South 3.9 km/h 3.7 km/h 58% 0.0 mm CLR
01:25 17.5 °C 9.2 °C 1013.6 hPa South 3.9 km/h   58% 0.0 mm CLR
01:28 17.5 °C 10.1 °C 1013.6 hPa South 2.3 km/h 4.7 km/h 62% 0.0 mm CLR
01:37 17.4 °C 10.3 °C 1013.5 hPa South 2.3 km/h 1.9 km/h 63% 0.0 mm CLR
01:44 17.3 °C 10.4 °C 1013.5 hPa Calm   1.9 km/h 64% 0.0 mm CLR
01:49 17.2 °C 10.6 °C 1013.3 hPa South 2.3 km/h 1.9 km/h 65% 0.0 mm CLR
01:50 17.2 °C 10.6 °C 1013.3 hPa South 2.3 km/h 1.9 km/h 65% 0.0 mm CLR
01:56 17.1 °C 10.4 °C 1013.3 hPa South 2.3 km/h 1.9 km/h 65% 0.0 mm CLR
02:25 16.7 °C 10.1 °C 1013.0 hPa Calm   3.2 km/h 65% 0.0 mm CLR
02:30 16.4 °C 10.1 °C 1012.9 hPa Calm   3.7 km/h 66% 0.0 mm CLR
02:35 16.4 °C 10.1 °C 1012.7 hPa Calm   3.2 km/h 66% 0.0 mm CLR
02:40 16.3 °C 9.7 °C 1012.7 hPa North 2.3 km/h   65% 0.0 mm CLR
02:45 16.3 °C 9.7 °C 1012.7 hPa North 1.6 km/h 4.8 km/h 65% 0.0 mm CLR
02:50 16.3 °C 9.9 °C 1012.5 hPa North 2.3 km/h 3.7 km/h 66% 0.0 mm CLR
02:55 16.3 °C 9.7 °C 1012.5 hPa North 2.3 km/h 3.7 km/h 65% 0.0 mm CLR
03:00 16.3 °C 9.7 °C 1012.5 hPa North 1.6 km/h 3.2 km/h 65% 0.0 mm CLR
03:05 16.3 °C 9.5 °C 1012.3 hPa NNE 1.6 km/h 8.0 km/h 64% 0.0 mm CLR
03:10 16.3 °C 9.5 °C 1012.3 hPa East 3.2 km/h 8.0 km/h 64% 0.0 mm CLR
03:15 16.3 °C 9.2 °C 1012.3 hPa East 3.2 km/h 3.9 km/h 63% 0.0 mm CLR
03:20 16.2 °C 9.2 °C 1012.3 hPa East 2.3 km/h 3.7 km/h 63% 0.0 mm CLR
03:25 16.2 °C 9.4 °C 1012.3 hPa NNW 2.3 km/h 3.7 km/h 64% 0.0 mm CLR
03:30 16.2 °C 9.4 °C 1012.3 hPa Calm   5.6 km/h 64% 0.0 mm CLR
03:35 15.9 °C 9.3 °C 1012.1 hPa Calm   6.4 km/h 65% 0.0 mm CLR
03:40 15.8 °C 9.4 °C 1012.1 hPa NNW 3.2 km/h 4.7 km/h 66% 0.0 mm CLR
03:45 15.7 °C 9.6 °C 1012.1 hPa NW 3.2 km/h 5.6 km/h 67% 0.0 mm CLR
03:50 15.6 °C 9.5 °C 1011.9 hPa NW 2.9 km/h   67% 0.0 mm CLR
03:55 15.6 °C 9.5 °C 1011.9 hPa NW 2.9 km/h   67% 0.0 mm CLR
04:00 15.6 °C 9.5 °C 1011.9 hPa Calm     67% 0.0 mm CLR
04:05 15.6 °C 9.5 °C 1011.8 hPa Calm     67% 0.0 mm CLR
04:10 15.7 °C 9.8 °C 1011.8 hPa Calm     68% 0.0 mm CLR
04:15 15.8 °C 9.7 °C 1011.8 hPa Calm     67% 0.0 mm CLR
04:20 15.9 °C 9.6 °C 1011.6 hPa Calm   8.0 km/h 66% 0.0 mm CLR
04:25 15.9 °C 9.3 °C 1011.6 hPa Calm   5.8 km/h 65% 0.0 mm CLR
04:30 15.9 °C 9.3 °C 1011.6 hPa SE 3.9 km/h   65% 0.0 mm CLR
04:35 15.8 °C 9.2 °C 1011.5 hPa SE 3.2 km/h 4.8 km/h 65% 0.0 mm CLR
04:40 15.7 °C 9.4 °C 1011.5 hPa SE 2.3 km/h 7.4 km/h 66% 0.0 mm CLR
04:45 15.5 °C 9.4 °C 1011.5 hPa SE 2.3 km/h 3.7 km/h 67% 0.0 mm CLR
04:50 15.4 °C 9.3 °C 1011.3 hPa SE 2.9 km/h   67% 0.0 mm CLR
04:55 15.4 °C 9.5 °C 1011.3 hPa SW 2.9 km/h 7.4 km/h 68% 0.0 mm CLR
05:00 15.4 °C 9.5 °C 1011.3 hPa South 1.6 km/h 4.8 km/h 68% 0.0 mm CLR
05:05 15.4 °C 9.3 °C 1011.2 hPa SW 1.6 km/h 3.2 km/h 67% 0.0 mm CLR
05:10 15.4 °C 9.3 °C 1011.2 hPa Calm   3.7 km/h 67% 0.0 mm CLR
05:15 15.4 °C 9.5 °C 1011.2 hPa Calm   5.6 km/h 68% 0.0 mm CLR
05:20 15.5 °C 9.6 °C 1011.1 hPa SW 3.2 km/h 4.8 km/h 68% 0.0 mm CLR
05:25 15.6 °C 9.5 °C 1011.1 hPa SSW 2.9 km/h 9.3 km/h 67% 0.0 mm CLR
05:30 15.6 °C 9.5 °C 1011.1 hPa SSW 4.8 km/h 11.3 km/h 67% 0.0 mm CLR
05:35 15.6 °C 9.3 °C 1010.9 hPa SSW 5.8 km/h 9.3 km/h 66% 0.0 mm CLR
05:40 15.6 °C 9.3 °C 1010.9 hPa SW 5.0 km/h 7.4 km/h 66% 0.0 mm CLR
05:45 15.6 °C 9.3 °C 1010.9 hPa SSW 5.0 km/h 11.1 km/h 66% 0.0 mm CLR
05:50 15.5 °C 9.2 °C 1010.8 hPa SW 6.4 km/h 11.1 km/h 66% 0.0 mm CLR
05:55 15.5 °C 9.4 °C 1010.8 hPa SSW 6.4 km/h 7.4 km/h 67% 0.0 mm CLR
06:00 15.5 °C 9.4 °C 1010.8 hPa SW 4.8 km/h 11.3 km/h 67% 0.0 mm CLR
06:05 15.4 °C 9.3 °C 1010.7 hPa SW 5.0 km/h 9.3 km/h 67% 0.0 mm CLR
06:10 15.4 °C 9.3 °C 1010.7 hPa WSW 6.4 km/h 13.0 km/h 67% 0.0 mm CLR
06:15 15.4 °C 9.5 °C 1010.7 hPa SW 6.4 km/h 13.0 km/h 68% 0.0 mm CLR
06:20 15.4 °C 9.5 °C 1010.7 hPa SW 8.7 km/h 10.0 km/h 68% 0.0 mm CLR
06:25 15.3 °C 9.4 °C 1010.7 hPa SW 8.7 km/h 9.3 km/h 68% 0.0 mm CLR
06:30 15.3 °C 9.4 °C 1010.7 hPa SW 6.4 km/h 11.1 km/h 68% 0.0 mm CLR
06:35 15.3 °C 9.4 °C 1010.7 hPa SW 8.0 km/h 11.3 km/h 68% 0.0 mm CLR
06:40 15.3 °C 9.2 °C 1010.7 hPa SSE 6.4 km/h 11.1 km/h 67% 0.0 mm CLR
06:45 15.2 °C 9.1 °C 1010.7 hPa South 6.4 km/h 9.3 km/h 67% 0.0 mm CLR
06:50 15.1 °C 9.0 °C 1010.6 hPa SSE 6.9 km/h 11.1 km/h 67% 0.0 mm CLR
06:55 14.9 °C 9.1 °C 1010.6 hPa SSW 6.9 km/h 13.0 km/h 68% 0.0 mm CLR
07:00 14.8 °C 8.9 °C 1010.6 hPa South 8.0 km/h 12.9 km/h 68% 0.0 mm CLR
07:05 14.8 °C 8.9 °C 1010.7 hPa South 8.0 km/h 12.9 km/h 68% 0.0 mm CLR
07:10 14.8 °C 8.9 °C 1010.7 hPa South 8.0 km/h 11.3 km/h 68% 0.0 mm CLR
07:15 14.9 °C 8.8 °C 1010.7 hPa SSW 6.4 km/h 9.3 km/h 67% 0.0 mm CLR
07:20 14.9 °C 8.8 °C 1010.8 hPa SSW 8.0 km/h 9.7 km/h 67% 0.0 mm CLR
07:25 14.9 °C 8.8 °C 1010.8 hPa SSW 8.0 km/h 9.7 km/h 67% 0.0 mm CLR
07:30 15.0 °C 8.9 °C 1010.8 hPa South 6.4 km/h 5.6 km/h 67% 0.0 mm CLR
07:35 15.1 °C 9.0 °C 1010.7 hPa SSW 8.0 km/h 8.0 km/h 67% 0.0 mm CLR
07:40 15.1 °C 9.0 °C 1010.7 hPa South 5.0 km/h 3.7 km/h 67% 0.0 mm CLR
07:45 15.3 °C 9.2 °C 1010.7 hPa West 5.0 km/h 7.4 km/h 67% 0.0 mm CLR
07:50 15.4 °C 9.3 °C 1010.7 hPa SW 3.9 km/h 5.6 km/h 67% 0.0 mm CLR
07:55 15.5 °C 9.2 °C 1010.7 hPa SW 3.9 km/h 7.4 km/h 66% 0.0 mm CLR
08:00 15.7 °C 9.3 °C 1010.7 hPa WSW 3.2 km/h 8.0 km/h 66% 0.0 mm CLR
08:05 15.8 °C 9.2 °C 1010.6 hPa WSW 3.2 km/h 9.7 km/h 65% 0.0 mm CLR
08:10 15.9 °C 9.3 °C 1010.6 hPa SW 4.7 km/h 7.4 km/h 65% 0.0 mm CLR
08:15 16.1 °C 9.3 °C 1010.6 hPa SSW 4.7 km/h 7.4 km/h 64% 0.0 mm CLR
08:20 16.2 °C 9.4 °C 1010.7 hPa SSW 3.2 km/h 8.0 km/h 64% 0.0 mm CLR
08:25 16.3 °C 9.2 °C 1010.7 hPa South 3.9 km/h 5.6 km/h 63% 0.0 mm CLR
08:30 16.4 °C 9.3 °C 1010.7 hPa SW 3.2 km/h 5.6 km/h 63% 0.0 mm CLR
08:35 16.4 °C 9.1 °C 1010.6 hPa SSW 3.2 km/h 11.3 km/h 62% 0.0 mm CLR
08:40 16.4 °C 9.1 °C 1010.6 hPa SSE 5.0 km/h 9.3 km/h 62% 0.0 mm CLR
08:45 16.6 °C 9.3 °C 1010.6 hPa South 5.0 km/h 5.6 km/h 62% 0.0 mm CLR
08:50 16.7 °C 9.4 °C 1010.6 hPa South 3.9 km/h 7.4 km/h 62% 0.0 mm CLR
08:55 16.9 °C 9.3 °C 1010.6 hPa South 3.9 km/h 5.6 km/h 61% 0.0 mm CLR
09:00 17.2 °C 9.6 °C 1010.6 hPa South 3.2 km/h 9.7 km/h 61% 0.0 mm CLR
09:05 17.4 °C 9.6 °C 1010.5 hPa SSE 3.2 km/h 9.7 km/h 60% 0.0 mm CLR
09:10 17.7 °C 9.6 °C 1010.5 hPa WSW 5.0 km/h 11.1 km/h 59% 0.0 mm CLR
09:15 17.7 °C 9.6 °C 1010.5 hPa SW 5.0 km/h 5.8 km/h 59% 0.0 mm CLR
09:20 17.9 °C 9.0 °C 1010.5 hPa SW 4.7 km/h 13.0 km/h 56% 0.0 mm CLR
09:25 17.9 °C 9.0 °C 1010.5 hPa SSW 4.7 km/h 11.1 km/h 56% 0.0 mm CLR
09:30 18.1 °C 9.2 °C 1010.5 hPa SW 8.4 km/h 11.1 km/h 56% 0.0 mm CLR
09:35 18.2 °C 9.0 °C 1010.3 hPa SW 8.0 km/h 14.5 km/h 55% 0.0 mm CLR
09:40 18.4 °C 9.2 °C 1010.3 hPa SSW 8.7 km/h 11.1 km/h 55% 0.0 mm CLR
09:45 18.6 °C 9.1 °C 1010.3 hPa SSW 8.7 km/h 11.1 km/h 54% 0.0 mm CLR
09:50 18.8 °C 9.3 °C 1010.1 hPa SW 6.9 km/h 9.3 km/h 54% 0.0 mm CLR
09:55 19.0 °C 9.2 °C 1010.1 hPa West 6.9 km/h 8.4 km/h 53% 0.0 mm CLR
10:00 19.2 °C 9.4 °C 1010.1 hPa SW 4.8 km/h 8.0 km/h 53% 0.0 mm CLR
10:05 19.4 °C 9.6 °C 1010.0 hPa SW 5.0 km/h 10.0 km/h 53% 0.0 mm CLR
10:10 19.5 °C 9.1 °C 1010.0 hPa West 6.4 km/h 9.3 km/h 51% 0.0 mm CLR
10:15 19.7 °C 9.0 °C 1010.0 hPa SW 6.4 km/h 11.1 km/h 50% 0.0 mm CLR
10:20 19.8 °C 9.1 °C 1009.8 hPa WSW 8.0 km/h 12.9 km/h 50% 0.0 mm CLR
10:25 19.9 °C 9.2 °C 1009.8 hPa WSW 6.4 km/h 11.1 km/h 50% 0.0 mm CLR
10:30 20.1 °C 9.1 °C 1009.8 hPa South 6.9 km/h 9.3 km/h 49% 0.0 mm CLR
10:35 20.4 °C 9.3 °C 1009.6 hPa SW 6.9 km/h 9.3 km/h 49% 0.0 mm CLR
10:40 20.6 °C 9.2 °C 1009.6 hPa South 7.6 km/h 9.3 km/h 48% 0.0 mm CLR
10:45 20.8 °C 9.1 °C 1009.6 hPa WSW 7.6 km/h 16.7 km/h 47% 0.0 mm CLR
10:50 20.9 °C 9.2 °C 1009.4 hPa WSW 8.0 km/h 16.1 km/h 47% 0.0 mm CLR
10:55 21.2 °C 9.1 °C 1009.4 hPa SW 8.0 km/h 14.5 km/h 46% 0.0 mm CLR
11:00 21.3 °C 8.9 °C 1009.4 hPa WSW 8.0 km/h 14.5 km/h 45% 0.0 mm CLR
11:05 21.5 °C 9.1 °C 1009.3 hPa WSW 7.6 km/h 11.1 km/h 45% 0.0 mm CLR
11:10 21.7 °C 8.9 °C 1009.3 hPa WSW 7.6 km/h 11.1 km/h 44% 0.0 mm CLR
11:15 21.9 °C 9.4 °C 1009.3 hPa WSW 7.6 km/h 11.1 km/h 45% 0.0 mm CLR
11:20 22.3 °C 9.1 °C 1009.2 hPa SW 8.4 km/h 7.4 km/h 43% 0.0 mm CLR
11:25 22.4 °C 9.6 °C 1009.2 hPa West 8.4 km/h 11.1 km/h 44% 0.0 mm CLR
11:30 22.8 °C 9.6 °C 1009.2 hPa WSW 8.0 km/h 14.5 km/h 43% 0.0 mm CLR
11:35 23.0 °C 9.7 °C 1009.0 hPa WSW 6.9 km/h 6.4 km/h 43% 0.0 mm CLR
11:40 23.3 °C 9.7 °C 1009.0 hPa WNW 6.9 km/h 7.4 km/h 42% 0.0 mm CLR
11:45 23.6 °C 9.6 °C 1009.0 hPa WSW 6.9 km/h 9.3 km/h 41% 0.0 mm CLR
11:50 23.8 °C 9.8 °C 1008.8 hPa South 5.8 km/h 13.0 km/h 41% 0.0 mm CLR
11:55 23.9 °C 9.5 °C 1008.8 hPa SSE 5.8 km/h 9.3 km/h 40% 0.0 mm CLR
12:00 24.1 °C 9.7 °C 1008.8 hPa South 8.0 km/h 9.7 km/h 40% 0.0 mm CLR
12:05 24.4 °C 9.6 °C 1008.6 hPa SW 6.4 km/h 9.3 km/h 39% 0.0 mm CLR
12:10 24.7 °C 9.8 °C 1008.6 hPa SSW 5.0 km/h 7.4 km/h 39% 0.0 mm CLR
12:15 25.1 °C 9.8 °C 1008.6 hPa South 5.0 km/h 11.1 km/h 38% 0.0 mm CLR
12:20 25.4 °C 10.1 °C 1008.5 hPa SSW 5.8 km/h 7.4 km/h 38% 0.0 mm CLR
12:25 25.7 °C 9.9 °C 1008.5 hPa ESE 5.8 km/h 13.0 km/h 37% 0.0 mm CLR
12:30 26.1 °C 10.3 °C 1008.5 hPa SW 5.0 km/h 3.7 km/h 37% 0.0 mm CLR
12:35 26.4 °C 10.1 °C 1008.3 hPa SSE 5.0 km/h 7.6 km/h 36% 0.0 mm CLR
12:40 26.7 °C 9.9 °C 1008.3 hPa WSW 4.7 km/h 7.4 km/h 35% 0.0 mm CLR
12:45 26.8 °C 10.1 °C 1008.3 hPa WSW 4.7 km/h 7.4 km/h 35% 0.0 mm CLR
12:50 26.9 °C 9.7 °C 1008.1 hPa SW 4.8 km/h 11.3 km/h 34% 0.0 mm CLR
12:55 26.9 °C 9.7 °C 1008.1 hPa SSW 4.8 km/h 9.7 km/h 34% 0.0 mm CLR
13:00 27.2 °C 9.9 °C 1008.1 hPa WSW 3.2 km/h 8.0 km/h 34% 0.0 mm CLR
13:05 27.3 °C 10.1 °C 1007.8 hPa WNW 4.7 km/h 5.6 km/h 34% 0.0 mm CLR
13:10 27.4 °C 10.2 °C 1007.8 hPa SSE 3.9 km/h 7.4 km/h 34% 0.0 mm CLR
13:15 27.7 °C 9.9 °C 1007.8 hPa SSW 3.9 km/h 11.1 km/h 33% 0.0 mm CLR
13:20 27.9 °C 10.1 °C 1007.6 hPa SSW 6.4 km/h 7.4 km/h 33% 0.0 mm CLR
13:25 28.2 °C 9.9 °C 1007.6 hPa SSW 6.4 km/h 11.1 km/h 32% 0.0 mm CLR
13:30 28.3 °C 10.0 °C 1007.6 hPa SSE 5.8 km/h 11.1 km/h 32% 0.0 mm CLR
13:35 28.6 °C 10.3 °C 1007.4 hPa East 5.8 km/h 9.3 km/h 32% 0.0 mm CLR
13:40 28.8 °C 10.0 °C 1007.4 hPa WSW 5.0 km/h 10.3 km/h 31% 0.0 mm CLR
13:45 29.2 °C 9.8 °C 1007.4 hPa WSW 5.0 km/h 9.3 km/h 30% 0.0 mm CLR
13:50 29.5 °C 10.1 °C 1007.2 hPa SE 5.8 km/h 7.6 km/h 30% 0.0 mm CLR
13:55 29.6 °C 10.2 °C 1007.2 hPa East 5.8 km/h 5.6 km/h 30% 0.0 mm CLR
14:00 29.8 °C 10.3 °C 1007.2 hPa East 3.2 km/h 11.3 km/h 30% 0.0 mm CLR
14:05 30.0 °C 10.0 °C 1007.0 hPa South 4.7 km/h 9.3 km/h 29% 0.0 mm CLR
14:10 30.2 °C 9.7 °C 1007.0 hPa South 6.4 km/h 6.9 km/h 28% 0.0 mm CLR
14:15 30.2 °C 9.7 °C 1007.0 hPa East 6.4 km/h 7.4 km/h 28% 0.0 mm CLR
14:20 30.2 °C 10.2 °C 1006.8 hPa SSE 5.0 km/h 7.4 km/h 29% 0.0 mm CLR
14:25 30.4 °C 9.8 °C 1006.8 hPa SSW 5.0 km/h 9.3 km/h 28% 0.0 mm CLR
14:30 30.4 °C 9.3 °C 1006.8 hPa SSE 5.0 km/h 7.4 km/h 27% 0.0 mm CLR
14:35 30.6 °C 9.4 °C 1006.8 hPa South 5.0 km/h 9.3 km/h 27% 0.0 mm CLR
14:40 30.7 °C 9.6 °C 1006.8 hPa SSW 5.8 km/h 7.4 km/h 27% 0.0 mm CLR
14:45 30.9 °C 9.2 °C 1006.8 hPa ENE 5.8 km/h 3.7 km/h 26% 0.0 mm CLR
14:50 31.2 °C 9.4 °C 1006.6 hPa WNW 4.7 km/h 9.3 km/h 26% 0.0 mm CLR
14:55 31.3 °C 8.9 °C 1006.6 hPa South 4.7 km/h 7.4 km/h 25% 0.0 mm CLR
15:00 31.6 °C 9.2 °C 1006.6 hPa South 4.8 km/h 14.5 km/h 25% 0.0 mm CLR
15:05 31.7 °C 9.8 °C 1006.4 hPa SSW 4.8 km/h 12.9 km/h 26% 0.0 mm CLR
15:10 31.8 °C 9.9 °C 1006.4 hPa NE 6.4 km/h 7.4 km/h 26% 0.0 mm CLR
15:15 32.1 °C 10.2 °C 1006.4 hPa ESE 6.4 km/h 5.0 km/h 26% 0.0 mm CLR
15:20 32.4 °C 10.4 °C 1006.3 hPa ESE 3.9 km/h 13.0 km/h 26% 0.0 mm CLR
15:25 32.3 °C 10.9 °C 1006.3 hPa ESE 3.9 km/h 13.0 km/h 27% 0.0 mm CLR
15:30 32.2 °C 10.8 °C 1006.3 hPa ESE 8.4 km/h 16.7 km/h 27% 0.0 mm CLR
15:35 32.0 °C 10.1 °C 1006.3 hPa NE 8.4 km/h 14.8 km/h 26% 0.0 mm CLR
15:40 32.0 °C 10.1 °C 1006.3 hPa NNE 8.7 km/h 9.5 km/h 26% 0.0 mm CLR
15:45 32.0 °C 10.1 °C 1006.3 hPa NE 8.7 km/h 16.7 km/h 26% 0.0 mm CLR
15:50 32.1 °C 10.2 °C 1006.1 hPa NNE 10.0 km/h 16.7 km/h 26% 0.0 mm CLR
15:55 31.8 °C 12.6 °C 1006.1 hPa NE 10.0 km/h 20.4 km/h 31% 0.0 mm CLR
16:00 31.3 °C 13.2 °C 1006.1 hPa NE 16.1 km/h 33.8 km/h 33% 0.0 mm CLR
16:05 30.7 °C 13.1 °C 1006.2 hPa NNE 17.2 km/h 27.8 km/h 34% 0.0 mm CLR
16:10 30.1 °C 12.9 °C 1006.2 hPa NE 21.7 km/h 33.3 km/h 35% 0.0 mm CLR
16:15 29.8 °C 13.1 °C 1006.2 hPa NE 21.7 km/h 35.2 km/h 36% 0.0 mm CLR
16:20 29.5 °C 12.8 °C 1006.2 hPa ENE 23.7 km/h 38.9 km/h 36% 0.0 mm CLR
16:25 29.4 °C 12.8 °C 1006.2 hPa NE 23.7 km/h 37.0 km/h 36% 0.0 mm CLR
16:30 29.3 °C 13.1 °C 1006.2 hPa NE 25.1 km/h 25.9 km/h 37% 0.0 mm CLR
16:35 28.9 °C 12.7 °C 1006.1 hPa NE 25.1 km/h 27.8 km/h 37% 0.0 mm CLR
16:40 28.8 °C 12.7 °C 1006.1 hPa NNE 23.7 km/h 33.3 km/h 37% 0.0 mm CLR
16:45 28.8 °C 12.7 °C 1006.1 hPa NE 23.7 km/h 38.1 km/h 37% 0.0 mm CLR
16:50 28.6 °C 12.5 °C 1006.1 hPa NE 24.5 km/h 33.3 km/h 37% 0.0 mm CLR
16:55 28.6 °C 12.5 °C 1006.1 hPa NNE 24.5 km/h 35.9 km/h 37% 0.0 mm CLR
17:00 28.4 °C 12.7 °C 1006.1 hPa NE 24.1 km/h 41.8 km/h 38% 0.0 mm CLR
17:05 28.1 °C 12.4 °C 1006.2 hPa NE 23.3 km/h 25.9 km/h 38% 0.0 mm CLR
17:10 28.0 °C 12.3 °C 1006.2 hPa NNE 25.6 km/h 38.9 km/h 38% 0.0 mm CLR
17:15 27.8 °C 12.2 °C 1006.2 hPa ENE 25.6 km/h 42.6 km/h 38% 0.0 mm CLR
17:20 27.6 °C 12.4 °C 1006.2 hPa NNE 24.5 km/h 48.1 km/h 39% 0.0 mm CLR
17:25 27.2 °C 12.8 °C 1006.2 hPa NE 24.5 km/h 40.7 km/h 41% 0.0 mm CLR
17:30 27.3 °C 12.9 °C 1006.2 hPa NE 27.0 km/h 40.7 km/h 41% 0.0 mm CLR
17:35 27.2 °C 13.2 °C 1006.4 hPa NNE 27.4 km/h 41.8 km/h 42% 0.0 mm CLR
17:40 27.1 °C 13.1 °C 1006.4 hPa North 25.1 km/h 33.3 km/h 42% 0.0 mm CLR
17:45 26.9 °C 13.3 °C 1006.4 hPa ENE 25.1 km/h 31.5 km/h 43% 0.0 mm CLR
17:50 26.6 °C 12.6 °C 1006.5 hPa NE 23.3 km/h 38.9 km/h 42% 0.0 mm CLR
17:55 26.4 °C 12.8 °C 1006.5 hPa NE 23.3 km/h 33.5 km/h 43% 0.0 mm CLR
18:00 26.4 °C 12.8 °C 1006.5 hPa NE 25.7 km/h 45.1 km/h 43% 0.0 mm CLR
18:05 26.4 °C 12.8 °C 1006.8 hPa NE 25.7 km/h 40.2 km/h 43% 0.0 mm CLR
18:10 26.7 °C 12.7 °C 1006.8 hPa NE 24.5 km/h 37.8 km/h 42% 0.0 mm CLR
18:15 26.6 °C 12.3 °C 1006.8 hPa NNE 24.5 km/h 33.3 km/h 41% 0.0 mm CLR
18:20 26.4 °C 12.1 °C 1006.9 hPa NE 23.7 km/h 38.9 km/h 41% 0.0 mm CLR
18:25 26.3 °C 11.6 °C 1006.9 hPa NE 23.7 km/h 29.6 km/h 40% 0.0 mm CLR
18:30 26.3 °C 11.2 °C 1006.9 hPa NE 22.5 km/h 29.6 km/h 39% 0.0 mm CLR
18:35 26.1 °C 11.1 °C 1007.0 hPa NE 22.5 km/h 38.9 km/h 39% 0.0 mm CLR
18:40 25.8 °C 10.8 °C 1007.0 hPa NE 25.1 km/h 35.2 km/h 39% 0.0 mm CLR
18:45 25.8 °C 11.6 °C 1007.0 hPa NE 25.1 km/h 29.6 km/h 41% 0.0 mm CLR
18:50 25.7 °C 11.4 °C 1007.2 hPa North 22.5 km/h 33.3 km/h 41% 0.0 mm CLR
18:55 25.6 °C 11.4 °C 1007.2 hPa NE 22.5 km/h 29.6 km/h 41% 0.0 mm CLR
19:00 25.4 °C 11.6 °C 1007.2 hPa NE 20.9 km/h 37.0 km/h 42% 0.0 mm CLR
19:05 25.1 °C 11.3 °C 1007.3 hPa ENE 20.1 km/h 28.6 km/h 42% 0.0 mm CLR
19:10 24.9 °C 11.4 °C 1007.3 hPa NE 22.5 km/h 35.2 km/h 43% 0.0 mm CLR
19:15 24.7 °C 11.3 °C 1007.3 hPa NNE 22.5 km/h 33.3 km/h 43% 0.0 mm CLR
19:20 24.6 °C 11.6 °C 1007.5 hPa ENE 22.5 km/h 31.5 km/h 44% 0.0 mm CLR
19:25 24.3 °C 11.9 °C 1007.5 hPa NE 22.5 km/h 27.8 km/h 46% 0.0 mm CLR
19:30 24.2 °C 12.2 °C 1007.5 hPa NE 20.1 km/h 20.4 km/h 47% 0.0 mm CLR
19:35 24.1 °C 12.4 °C 1007.8 hPa NNE 20.1 km/h 33.3 km/h 48% 0.0 mm CLR
19:40 23.8 °C 12.4 °C 1007.8 hPa NE 20.1 km/h 29.6 km/h 49% 0.0 mm CLR
19:45 23.7 °C 12.7 °C 1007.8 hPa NE 20.1 km/h 33.3 km/h 50% 0.0 mm CLR
19:50 23.4 °C 12.7 °C 1007.9 hPa NE 19.8 km/h 33.3 km/h 51% 0.0 mm CLR
19:55 23.1 °C 12.7 °C 1007.9 hPa NNE 19.8 km/h 33.3 km/h 52% 0.0 mm CLR
20:00 22.9 °C 12.6 °C 1007.9 hPa NE 22.5 km/h 30.6 km/h 52% 0.0 mm CLR
20:05 22.8 °C 13.0 °C 1008.1 hPa NE 22.5 km/h 32.2 km/h 54% 0.0 mm CLR
20:10 22.6 °C 13.4 °C 1008.1 hPa NNE 18.0 km/h 24.1 km/h 56% 0.0 mm CLR
20:15 22.3 °C 13.1 °C 1008.1 hPa ENE 18.0 km/h 24.1 km/h 56% 0.0 mm CLR
20:20 22.0 °C 12.8 °C 1008.3 hPa NNW 18.0 km/h 18.5 km/h 56% 0.0 mm CLR
20:25 21.8 °C 12.6 °C 1008.3 hPa NE 18.0 km/h 29.6 km/h 56% 0.0 mm CLR
20:30 21.7 °C 12.8 °C 1008.3 hPa NNE 15.6 km/h 24.1 km/h 57% 0.0 mm CLR
20:35 21.5 °C 12.9 °C 1008.7 hPa NE 15.6 km/h 25.9 km/h 58% 0.0 mm CLR
20:40 21.3 °C 12.9 °C 1008.7 hPa NNE 16.4 km/h 22.2 km/h 59% 0.0 mm CLR
20:45 21.2 °C 13.1 °C 1008.7 hPa NE 16.4 km/h 27.8 km/h 60% 0.0 mm CLR
20:50 21.1 °C 13.1 °C 1008.9 hPa NE 18.0 km/h 22.2 km/h 60% 0.0 mm CLR
20:55 21.0 °C 13.2 °C 1008.9 hPa ENE 18.0 km/h 20.4 km/h 61% 0.0 mm CLR
21:00 20.9 °C 13.4 °C 1008.9 hPa NE 14.5 km/h 25.7 km/h 62% 0.0 mm CLR
21:05 20.8 °C 13.5 °C 1009.2 hPa NE 14.8 km/h 22.2 km/h 63% 0.0 mm CLR
21:10 20.7 °C 13.7 °C 1009.2 hPa NE 17.2 km/h 27.8 km/h 64% 0.0 mm CLR
21:15 20.6 °C 13.8 °C 1009.2 hPa NE 17.2 km/h 22.2 km/h 65% 0.0 mm CLR
21:20 20.4 °C 13.8 °C 1009.5 hPa NNE 16.1 km/h 16.7 km/h 66% 0.0 mm CLR
21:25 20.4 °C 14.3 °C 1009.5 hPa NE 16.1 km/h 19.8 km/h 68% 0.0 mm CLR
21:30 20.3 °C 14.7 °C 1009.5 hPa NE 13.0 km/h 22.2 km/h 70% 0.0 mm CLR
21:35 20.1 °C 14.9 °C 1009.6 hPa NE 13.0 km/h 20.4 km/h 72% 0.0 mm CLR
21:40 20.0 °C 15.0 °C 1009.6 hPa NNE 14.8 km/h 19.0 km/h 73% 0.0 mm CLR
21:45 19.9 °C 15.1 °C 1009.6 hPa NE 14.8 km/h 16.4 km/h 74% 0.0 mm CLR
21:50 19.8 °C 15.2 °C 1009.8 hPa NE 13.0 km/h 22.2 km/h 75% 0.0 mm CLR
21:55 19.7 °C 15.3 °C 1009.8 hPa ENE 13.0 km/h 30.6 km/h 76% 0.0 mm CLR
22:00 19.6 °C 15.4 °C 1009.8 hPa NE 14.5 km/h 30.6 km/h 77% 0.0 mm CLR
22:05 19.4 °C 15.3 °C 1010.2 hPa NNE 15.6 km/h 16.7 km/h 77% 0.0 mm CLR
22:10 19.4 °C 15.4 °C 1010.2 hPa NE 12.2 km/h 25.9 km/h 78% 0.0 mm CLR
22:15 19.3 °C 15.6 °C 1010.2 hPa NE 12.2 km/h 25.9 km/h 79% 0.0 mm CLR
22:20 19.2 °C 15.4 °C 1010.7 hPa ENE 14.0 km/h 16.7 km/h 79% 0.0 mm CLR
22:25 19.2 °C 15.4 °C 1010.7 hPa NE 14.0 km/h 14.8 km/h 79% 0.0 mm CLR
22:30 19.2 °C 15.4 °C 1010.7 hPa NE 10.3 km/h 13.0 km/h 79% 0.0 mm CLR
22:35 19.2 °C 15.3 °C 1010.9 hPa NE 10.3 km/h 15.6 km/h 78% 0.0 mm CLR
22:40 19.2 °C 15.3 °C 1010.9 hPa NE 10.3 km/h 22.2 km/h 78% 0.0 mm CLR
22:45 19.2 °C 15.3 °C 1010.9 hPa NE 10.3 km/h 11.1 km/h 78% 0.0 mm CLR
22:50 19.2 °C 15.4 °C 1011.3 hPa North 9.5 km/h 14.8 km/h 79% 0.0 mm CLR
22:55 19.1 °C 15.4 °C 1011.3 hPa NNE 9.5 km/h 16.7 km/h 79% 0.0 mm CLR
23:00 19.1 °C 15.4 °C 1011.3 hPa NE 9.7 km/h 16.1 km/h 79% 0.0 mm CLR
23:05 19.1 °C 15.6 °C 1011.4 hPa NE 9.7 km/h 20.9 km/h 80% 0.0 mm CLR
23:10 19.0 °C 15.4 °C 1011.4 hPa NE 11.9 km/h 16.7 km/h 80% 0.0 mm CLR
23:15 19.0 °C 15.4 °C 1011.4 hPa NE 11.9 km/h 18.5 km/h 80% 0.0 mm CLR
23:20 19.0 °C 15.7 °C 1011.5 hPa NE 11.1 km/h 14.8 km/h 81% 0.0 mm CLR
23:25 19.0 °C 15.7 °C 1011.5 hPa East 11.1 km/h 16.7 km/h 81% 0.0 mm CLR
23:30 19.1 °C 15.8 °C 1011.5 hPa NNE 11.1 km/h 14.8 km/h 81% 0.0 mm CLR
23:35 19.1 °C 15.8 °C 1011.7 hPa NE 11.1 km/h 14.8 km/h 81% 0.0 mm CLR
23:40 19.2 °C 15.7 °C 1011.7 hPa North 10.0 km/h 14.8 km/h 80% 0.0 mm CLR
23:45 19.2 °C 15.7 °C 1011.7 hPa NE 10.0 km/h 14.8 km/h 80% 0.0 mm CLR
23:50 19.2 °C 15.7 °C 1011.7 hPa NE 8.7 km/h 16.7 km/h 80% 0.0 mm CLR
23:55 19.2 °C 15.8 °C 1011.7 hPa NNE 8.7 km/h 18.5 km/h 81% 0.0 mm CLR
Murcia-Puente Tocinos, España
Compliments of Weather Underground - 2.75 mb

La estación de MeteoMurcia.com, publica sus datos en los siguientes proyectos:

Weather Underground PWS IMURCIAP2 Meteoclimatic www.awekas.at

W3Counter
Web Analytics